Archival Weather

Salzburg

Salzburg, Austria (LOWS)

Report from: Thursday, September 21, 2023 7:20 AM CEST
Current time: Sunday, July 14, 2024 12:40 PM CEST

Current weather – Weather history – Daily summaries
Weather forecast

Temperature13.0°C (55.4°F)
Dew point11.0°C (51.8°F)
Winds 4 kts (2.1 m/s, 4.6 mph) South (180°)
Visibility6.2 mi. (10 km)
Clouds Few clouds 7,000 ft. (2,134 m)
Scattered clouds 10,000 ft. (3,048 m)
Altimeter29.74 in.Hg (1007 mB)
Relative humidity88 %
Density altitude159 ft. (49 m)
Remarks Fully automated report
No significant changes expected in the next two hours
Flight conditions Visual Meteorological Conditions
Raw dataLOWS 210520Z AUTO 18004KT 9999 FEW070 SCT100 13/11 Q1007 NOSIG
An error has occurred. This application may no longer respond until reloaded. Reload 🗙